Tiempo atmosférico en la estación meteorológica de Baza, Granada (801 m.)



Fecha
DESCASC
Temp. máxima en grados centígrados (hora)
DESCASC
Temp. mínima en grados centígrados (hora)
DESCASC
Temp. media en grados centígrados
DESCASC
Racha de viento máxima en m/sg (hora)
DESCASC
Velocidad máxima media en intervalos de 10 minutos(hora)
DESCASC
Precipitaciones diarias en mm
DESCASC
Precipitaciones de 00:00 a 06:00 en mm
DESCASC
Precipitaciones de 06:00 a 12:00 en mm
DESCASC
Precipitaciones de 12:00 a 18:00 en mm
DESCASC
Precipitaciones de 18:00 a 24:00 en mm
DESCASC
23-05-2018 26.6 (17:10) 9.1 (07:20) 17.9 7.78 (19:20) 4.72 (19:20) 0 0 0 0 0
22-05-2018 26.1 (17:50) 5.5 (07:20) 15.8 6.94 (19:10) 3.89 (19:30) 0 0 0 0 0
21-05-2018 21.4 (14:20) 8.4 (07:20) 14.9 11.67 (15:40) 6.39 (15:40) 0 0 0 0 0
20-05-2018 23.4 (14:20) 6.2 (00:00) 14.8 8.61 (16:00) 5.28 (19:50) 1.2 0 0 1.2 0
19-05-2018 25.4 (16:50) 7.3 (00:00) 16.3 9.72 (20:20) 6.11 (20:00) 0 0 0 0 0
18-05-2018 24.5 (16:20) 5.1 (00:00) 14.8 11.11 (16:50) 6.39 (18:40) 0 0 0 0 0
17-05-2018 22.4 (14:20) 5.5 (00:00) 13.9 10.28 (16:00) 5.56 (13:30) 0 0 0 0 0
16-05-2018 25.1 (16:40) 5.7 (00:00) 15.4 17.22 (15:10) 6.39 (19:50) 0 0 0 0 0
15-05-2018 24.9 (17:20) 4.6 (00:00) 14.7 9.17 (20:10) 5.83 (20:10) 0 0 0 0 0
14-05-2018 22.2 (17:20) 2.7 (00:00) 12.5 10 (18:10) 6.39 (17:40) 0 0 0 0 0
13-05-2018 19.7 (16:40) 7.6 (00:00) 13.7 11.11 (17:00) 6.11 (17:10) 0 0 0 0 0
12-05-2018 22 (17:00) 11.9 (00:00) 16.9 11.67 (15:00) 7.78 (15:20) 0 0 0 0 0
11-05-2018 26.1 (19:10) 7.8 (07:00) 17 7.22 (20:10) 4.44 (20:10) 0 0 0 0 0
10-05-2018 24.8 (16:30) 11.3 (00:00) 18 9.44 (17:10) 5.83 (01:30) 4 0 0 1.4 2.6
09-05-2018 23.6 (16:00) 9.1 (00:00) 16.4 11.11 (16:50) 7.5 (17:20) 0.2 0 0.2 0 0
08-05-2018 24.3 (17:40) 7 (00:00) 15.6 12.5 (14:50) 7.22 (15:00) 8.4 0 0 0 8.4
07-05-2018 25.4 (17:10) 5.2 (00:00) 15.3 11.67 (17:30) 8.33 (17:30) 0 0 0 0 0
06-05-2018 23.5 (14:40) 5.8 (00:00) 14.7 11.39 (16:20) 7.22 (16:30) 0 0 0 0 0
05-05-2018 22.6 (15:30) 9.2 (00:00) 15.9 11.94 (16:00) 7.5 (16:10) 2.6 0 0 2.6 0
04-05-2018 21.8 (18:20) 7.7 (00:00) 14.7 9.17 (14:50) 4.72 (14:20) 0.4 0.2 0 0.2 0
03-05-2018 21.3 (16:40) 7.2 (00:00) 14.2 11.39 (19:00) 8.06 (19:00) 0 0 0 0 0
02-05-2018 17.8 (17:00) 0 (00:00) 8.9 10.28 (17:50) 6.39 (19:10) 0 0 0 0 0
01-05-2018 15.8 (14:50) 2.9 (08:10) 9.4 16.67 (15:10) 10 (15:20) -- 0 -- 0 0
30-04-2018 14.8 (18:00) 2.6 (00:00) 8.7 11.11 (19:20) 6.94 (18:20) 0 0 0 0 0
29-04-2018 15.1 (17:40) 6.4 (00:00) 10.8 17.78 (13:50) 11.67 (12:00) 0 0 0 0 0
28-04-2018 23.4 (16:10) 7.3 (00:00) 15.3 10.28 (19:30) 6.67 (20:00) 0 0 0 0 0
27-04-2018 24.8 (16:00) 8.7 (00:00) 16.7 15.28 (18:10) 6.94 (18:10) 5.6 0 0 0.2 5.4
26-04-2018 21.5 (16:10) 10.8 (00:00) 16.2 8.89 (16:30) 6.11 (16:30) 1.4 0 1.4 0 0
25-04-2018 17.3 (16:40) 11 (00:00) 14.1 9.72 (17:10) 5.28 (13:20) 0.6 0 0.4 0 0.2
24-04-2018 27 (16:10) 7.5 (00:00) 17.3 12.78 (17:00) 7.22 (16:30) 0.2 0.2 0 0 0

Gráficas

Temp. máximas Temp. mínimas Temp. medias Precipitaciones Rachas de viento máximas Velocidades máximas media en intervalos de 10 minutos

Datos horarios

Fecha y hora oficial Temperatura (ºC) Velocidad del viento (km/h) Dirección del viento Racha (km/h) Dirección de racha Precipitación (mm) Presión (hPa) Tendencia (hPa) Humedad (%)
2018-05-23 23:00:00 17.5 9 Sudeste 15 Sudeste 0 927.6 1.7 36
2018-05-23 22:00:00 18.8 9 Sudeste 24 Sudeste 0 927 1.4 33
2018-05-23 21:00:00 20.9 10 Sudeste 25 Sudeste 0 926.5 0.8 31
2018-05-23 20:00:00 23.1 13 Sudeste 28 Sudeste 0 925.9 -0.2 29
2018-05-23 19:00:00 24.9 15 Sudeste 27 Sudeste 0 925.6 -1 26
2018-05-23 18:00:00 25.5 8 Este 21 Este 0 925.7 -1.6 26
2018-05-23 17:00:00 26.3 9 Nordeste 21 Norte 0 926.1 -1.5 25
2018-05-23 16:00:00 26.4 5 Sudeste 22 Sudeste 0 926.6 -0.9 30
2018-05-23 15:00:00 23.1 8 Sudeste 20 Sur 0 927.3 0 31
2018-05-23 14:00:00 21.2 15 Sur 23 Sudeste 0 927.6 0 38
2018-05-23 13:00:00 22.3 3 Oeste 10 Noroeste 0 927.5 -0.2 38
2018-05-23 12:00:00 21.7 4 Noroeste 12 Nordeste 0 927.3 -0.3 35
2018-05-23 11:00:00 18.6 4 Este 10 Norte 0 927.6 0.3 46
2018-05-23 10:00:00 15.7 5 Norte 10 Norte 0 927.7 1.2 60
2018-05-23 09:00:00 12.4 4 Nordeste 7 Este 0 927.6 1.3 74
2018-05-23 08:00:00 9.5 4 Sudeste 8 Sudeste 0 927.3 0.9 82
2018-05-23 07:00:00 9.4 7 Sudeste 10 Sur 0 926.5 0 82
2018-05-23 06:00:00 9.7 4 Sur 9 Sur 0 926.3 -0.5 81
2018-05-23 05:00:00 10.4 7 Sudeste 13 Sudeste 0 926.4 -0.7 77
2018-05-23 04:00:00 11.2 6 Sudeste 11 Sudeste 0 926.5 -0.6 76
2018-05-23 03:00:00 12 3 Este 9 Este 0 926.8 -0.2 71
2018-05-23 02:00:00 13.4 7 Este 11 Este 0 927.1 0.6 65
2018-05-23 01:00:00 14.8 5 Nordeste 12 Sudeste 0 927.1 1.6 61
2018-05-23 00:00:00 16.3 6 Sudeste 19 Sudeste 0 927 2.5 55
2018-05-22 23:00:00 17.9 10 Sur 19 Sur 0 926.5 2.4 48
2018-05-22 22:00:00 19.5 10 Sur 19 Sur 0 925.5 1.5 43
2018-05-22 21:00:00 22 10 Sudeste 21 Sudeste 0 924.5 0.5 37
2018-05-22 20:00:00 22.9 12 Sudeste 25 Este 0 924.1 0 35
2018-05-22 19:00:00 25.1 8 Este 17 Este 0 924 -0.5 31
2018-05-22 18:00:00 25 10 Noroeste 21 Norte 0 924 -0.9 27
2018-05-22 17:00:00 25.3 9 Noroeste 22 Noroeste 0 924.1 -1.1 28
2018-05-22 16:00:00 25.2 8 Sudoeste 19 Oeste 0 924.5 -1.2 30
2018-05-22 15:00:00 23.8 7 Oeste 17 Norte 0 924.9 -1 32
2018-05-22 14:00:00 22.4 8 Noroeste 16 Norte 0 925.2 -0.8 38
2018-05-22 13:00:00 20.6 9 Noroeste 24 Noroeste 0 925.7 -0.3 46
2018-05-22 12:00:00 17.8 9 Norte 17 Noroeste 0 925.9 0.1 60
2018-05-22 11:00:00 14.8 7 Noroeste 12 Norte 0 926 0.6 73
2018-05-22 10:00:00 11.8 5 Norte 10 Norte 0 926 1.2 86
2018-05-22 09:00:00 8.9 3 Noroeste 5 Norte 0 925.8 1.3 97
2018-05-22 08:00:00 6.2 4 Sudeste 6 Sudeste 0 925.4 0.8 95
2018-05-22 07:00:00 5.8 3 Sur 5 Oeste 0 924.8 0.3 93
2018-05-22 06:00:00 6.5 3 Sur 5 Sudeste 0 924.5 -0.1 91
2018-05-22 05:00:00 7.5 3 Noroeste 7 Sur 0 924.6 -0.2 90
2018-05-22 04:00:00 8.2 7 Sudeste 15 Sudeste 0 924.5 -0.4 88
2018-05-22 03:00:00 8.4 8 Sur 10 Sur 0 924.6 -0.4 91
2018-05-22 02:00:00 8.9 5 Sudeste 8 Sudeste 0 924.8 -0.1 89
2018-05-22 01:00:00 9.9 5 Sudeste 10 Sudeste 0 924.9 0.8 87
2018-05-22 00:00:00 10.7 6 Sur 10 Sur 0 925 1.6 86
2018-05-21 23:00:00 12.3 5 Sur 7 Sur 0 924.9 1.8 78
2018-05-21 22:00:00 14 0 Calma 13 Oeste 0 924.1 0.8 69
2018-05-21 21:00:00 15.7 8 Noroeste 18 Noroeste 0 923.4 0.2 64
2018-05-21 20:00:00 18.1 12 Noroeste 23 Noroeste 0 923.1 -0.2 53
2018-05-21 19:00:00 16.5 14 Noroeste 28 Noroeste 0 923.3 0 57
2018-05-21 18:00:00 18.7 12 Noroeste 25 Oeste 0 923.2 0.4 56
2018-05-21 17:00:00 17.2 17 Oeste 30 Noroeste 0 923.3 0.5 57
2018-05-21 16:00:00 16.7 17 Oeste 42 Noroeste 0 923.3 0.4 54
2018-05-21 15:00:00 18.9 21 Sudoeste 39 Sudoeste 0 922.8 -0.4 39
2018-05-21 14:00:00 20.2 15 Sur 26 Sur 0 922.8 -0.7 42
2018-05-21 13:00:00 19.8 5 Oeste 13 Sudoeste 0 922.9 -0.7 49
2018-05-21 12:00:00 19 6 Norte 14 Norte 0 923.2 -0.3 50
2018-05-21 11:00:00 16 8 Norte 15 Norte 0 923.5 0.1 67
2018-05-21 10:00:00 13 4 Noroeste 12 Norte 0 923.6 0.6 85
2018-05-21 09:00:00 11 4 Norte 6 Norte 0 923.5 0.4 97
2018-05-21 08:00:00 8.8 4 Sudeste 9 Este 0 923.4 0.4 96
2018-05-21 07:00:00 9 6 Este 9 Este 0 923 -0.3 94
2018-05-21 06:00:00 10.3 3 Este 5 Sudeste 0 923.1 -0.4 93
2018-05-21 05:00:00 11.1 3 Sudeste 7 Sudoeste 0 923 -1 92
2018-05-21 04:00:00 11.5 3 Oeste 6 Sudoeste 0 923.3 -1.1 95
2018-05-21 03:00:00 11.5 3 Norte 6 Norte 0 923.5 -1.3 93
2018-05-21 02:00:00 11.4 2 Nordeste 6 Este 0 924 -0.8 89
2018-05-21 01:00:00 12.1 2 Este 6 Noroeste 0 924.4 -0.3 89
2018-05-21 00:00:00 12.4 4 Este 6 Este 0 924.8 0.5 87
2018-05-20 23:00:00 12.9 3 Norte 8 Noroeste 0 924.8 1.4 83
2018-05-20 22:00:00 13.3 5 Noroeste 18 Norte 0 924.7 2.5 81
2018-05-20 21:00:00 13.3 13 Norte 24 Norte 0 924.3 2.3 80
2018-05-20 20:00:00 14.4 17 Norte 28 Norte 0 923.4 1.3 75
2018-05-20 19:00:00 17.9 14 Este 27 Sudeste 0 922.2 -0.5 49
2018-05-20 18:00:00 18.5 15 Sudeste 30 Este 0 922 -1.2 48
2018-05-20 17:00:00 18.2 17 Sudeste 29 Este 1 922.1 -1.5 59
2018-05-20 16:00:00 19.8 15 Este 31 Este 0.2 922.7 -1.7 44
2018-05-20 15:00:00 20.3 10 Nordeste 22 Este 0 923.2 -1.6 50
2018-05-20 14:00:00 22.8 6 Nordeste 17 Norte 0 923.6 -1.5 32
2018-05-20 13:00:00 19.7 9 Norte 18 Norte 0 924.4 -0.9 44
2018-05-20 12:00:00 19 5 Noroeste 14 Norte 0 924.8 -0.7 51
2018-05-20 11:00:00 15.8 3 Sur 10 Nordeste 0 925.1 -0.3 60
2018-05-20 10:00:00 12.6 3 Norte 6 Nordeste 0 925.3 0.2 77
2018-05-20 09:00:00 8.8 2 Sudeste 6 Este 0 925.5 0.3 92
2018-05-20 08:00:00 6.6 5 Sudeste 9 Sudeste 0 925.4 0.1 94
2018-05-20 07:00:00 6.5 7 Sudeste 9 Sudeste 0 925.1 -0.4 93
2018-05-20 06:00:00 7.2 5 Sudeste 9 Sudeste 0 925.2 -0.8 92
2018-05-20 05:00:00 8.4 7 Sur 9 Sur 0 925.3 -1.1 90
2018-05-20 04:00:00 9.4 4 Este 9 Sudeste 0 925.5 -1.1 87
2018-05-20 03:00:00 10.5 7 Sudeste 11 Sudeste 0 926 -0.7 80
2018-05-20 02:00:00 11.9 7 Sur 15 Sur 0 926.4 0.2 80
2018-05-20 01:00:00 13.1 9 Sur 17 Sudeste 0 926.6 1.2 78
2018-05-20 00:00:00 13.6 9 Sudeste 17 Sudeste 0 926.7 1.7 76
2018-05-19 23:00:00 14.5 11 Sur 19 Sur 0 926.2 1.8 70
2018-05-19 22:00:00 15.5 9 Sur 25 Sudeste 0 925.4 1.4 64
2018-05-19 21:00:00 17.4 17 Sudeste 35 Sudeste 0 925 1 50
2018-05-19 20:00:00 20.3 22 Sudeste 33 Este 0 924.4 0 45
2018-05-19 19:00:00 22 18 Sudeste 33 Sudeste 0 924 -0.8 39
2018-05-19 18:00:00 24.2 13 Sudeste 27 Este 0 924 -1.2 29
2018-05-19 17:00:00 24.4 12 Este 28 Este 0 924.4 -1.4 26
2018-05-19 16:00:00 23.7 12 Este 28 Este 0 924.8 -1.5 26
2018-05-19 15:00:00 22.4 8 Este 26 Nordeste 0 925.2 -1.5 34
2018-05-19 14:00:00 21.7 11 Este 24 Nordeste 0 925.8 -1.2 31
2018-05-19 13:00:00 21 8 Norte 19 Noroeste 0 926.3 -0.7 36
2018-05-19 12:00:00 18.6 5 Noroeste 12 Oeste 0 926.7 0 51
2018-05-19 11:00:00 15.6 4 Noroeste 8 Noroeste 0 927 0.5 65
2018-05-19 10:00:00 12.6 2 Oeste 7 Sudeste 0 927 0.7 72
2018-05-19 09:00:00 9.7 2 Este 4 Este 0 926.7 0.4 84
2018-05-19 08:00:00 7.5 4 Sudeste 6 Sur 0 926.5 0.2 90
2018-05-19 07:00:00 7.4 6 Sudeste 7 Sur 0 926.3 -0.2 87
2018-05-19 06:00:00 7.7 6 Sur 7 Sur 0 926.3 -0.7 84
2018-05-19 05:00:00 8.3 4 Sudoeste 9 Este 0 926.3 -1.1 83
2018-05-19 04:00:00 8.6 4 Nordeste 8 Nordeste 0 926.5 -0.7 80
2018-05-19 03:00:00 9.2 5 Sudeste 9 Sudeste 0 927 -0.1 78
2018-05-19 02:00:00 10.2 7 Sur 10 Sur 0 927.4 0.6 73
2018-05-19 01:00:00 11.8 8 Sur 14 Sur 0 927.2 1 66
2018-05-19 00:00:00 13.2 10 Sur 15 Sudeste 0 927.1 1.5 60
2018-05-18 23:00:00 14.9 8 Sur 14 Sur 0 926.8 1.8 54
2018-05-18 22:00:00 16.3 8 Sur 16 Este 0 926.2 1.4 47
2018-05-18 21:00:00 17.7 12 Este 32 Este 0 925.6 1.1 42
2018-05-18 20:00:00 20.4 19 Este 37 Este 0 925 0.5 34
2018-05-18 19:00:00 22 20 Este 39 Este 0 924.8 0 29
2018-05-18 18:00:00 23.7 21 Sudeste 37 Este 0 924.5 -0.8 29
2018-05-18 17:00:00 22.9 18 Sudeste 40 Este 0 924.5 -1.4 31
2018-05-18 16:00:00 23.6 15 Este 39 Este 0 924.8 -1.4 30
2018-05-18 15:00:00 22 12 Sudeste 31 Este 0 925.3 -1.1 32
2018-05-18 14:00:00 22 13 Este 27 Este 0 925.9 -0.8 36
2018-05-18 13:00:00 19 4 Nordeste 17 Oeste 0 926.2 -0.6 46
2018-05-18 12:00:00 18.7 4 Nordeste 15 Este 0 926.4 -0.4 44
2018-05-18 11:00:00 14.9 6 Norte 12 Norte 0 926.7 0 62
2018-05-18 10:00:00 10.8 6 Norte 9 Norte 0 926.8 0.6 75
2018-05-18 09:00:00 8.4 3 Norte 7 Norte 0 926.8 0.8 80
2018-05-18 08:00:00 5.6 5 Sudeste 10 Sudeste 0 926.7 0.7 88
2018-05-18 07:00:00 5.2 6 Sur 11 Sur 0 926.2 0 90
2018-05-18 06:00:00 5.8 6 Sudeste 11 Sudeste 0 926 -0.3 88
2018-05-18 05:00:00 6.4 7 Sudeste 10 Sudeste 0 926 -0.6 87
2018-05-18 04:00:00 7.3 4 Sur 11 Sudeste 0 926.2 -0.7 85
2018-05-18 03:00:00 8.2 7 Este 11 Este 0 926.3 -0.6 89
2018-05-18 02:00:00 9.7 7 Sudeste 11 Sudeste 0 926.6 -0.1 87
2018-05-18 01:00:00 11.2 6 Sudeste 14 Sudeste 0 926.9 1.1 83
2018-05-18 00:00:00 12.3 8 Sudeste 19 Sudeste 0 926.9 1.4 83
2018-05-17 23:00:00 13.2 10 Sudeste 21 Sudeste 0 926.7 1.9 74
2018-05-17 22:00:00 14.7 13 Sudeste 23 Sudeste 0 925.8 1.2 67
2018-05-17 21:00:00 17.2 14 Sudeste 27 Sudeste 0 925.5 0.9 54
2018-05-17 20:00:00 19.6 19 Sudeste 34 Este 0 924.8 0.4 44
2018-05-17 19:00:00 21.3 16 Sudeste 34 Este 0 924.6 0 35
2018-05-17 18:00:00 19.6 14 Este 30 Este 0 924.6 -0.1 33
2018-05-17 17:00:00 21.8 13 Este 28 Este 0 924.4 -0.5 31
2018-05-17 16:00:00 20.6 13 Este 37 Este 0 924.6 -0.2 34
2018-05-17 15:00:00 20.4 17 Este 32 Este 0 924.7 0 33
2018-05-17 14:00:00 20.6 12 Este 35 Sudeste 0 924.9 0 33
2018-05-17 13:00:00 20.4 12 Este 32 Este 0 924.8 -0.3 33
2018-05-17 12:00:00 19.8 9 Este 27 Este 0 924.7 -0.5 34
2018-05-17 11:00:00 16.2 7 Sur 22 Este 0 924.9 -0.1 46
2018-05-17 10:00:00 13.9 9 Sudeste 18 Este 0 925.1 0.2 56
2018-05-17 09:00:00 10.2 6 Este 12 Este 0 925.2 0.1 71
2018-05-17 08:00:00 6.2 6 Este 10 Este 0 925 -0.5 80
2018-05-17 07:00:00 5.6 8 Este 11 Este 0 924.9 -0.8 79
2018-05-17 06:00:00 6.1 9 Este 11 Este 0 925.1 -0.9 77
2018-05-17 05:00:00 6.4 7 Este 13 Sudeste 0 925.5 -0.7 75
2018-05-17 04:00:00 6.9 8 Sudeste 11 Sudeste 0 925.7 -0.5 71
2018-05-17 03:00:00 8.3 5 Sudeste 12 Sudeste 0 926 0 66
2018-05-17 02:00:00 8.7 9 Este 12 Sudeste 0 926.2 0.5 62
2018-05-17 01:00:00 10.7 9 Sudeste 18 Sudeste 0 926.2 1.2 57
2018-05-17 00:00:00 12.3 13 Sudeste 21 Sudeste 0 926 1.5 53
2018-05-16 23:00:00 13 10 Sudeste 19 Sudeste 0 925.7 2 50
2018-05-16 22:00:00 14.6 13 Sudeste 29 Sudeste 0 925 1.5 46
2018-05-16 21:00:00 17.2 21 Sudeste 37 Sudeste 0 924.5 1 40
2018-05-16 20:00:00 20.2 21 Sudeste 40 Sudeste 0 923.7 0.2 32
2018-05-16 19:00:00 22.7 16 Este 35 Este 0 923.5 -0.5 27
2018-05-16 18:00:00 23.6 13 Este 35 Sudeste 0 923.5 -0.9 25
2018-05-16 17:00:00 25.1 16 Sudeste 48 Sudeste 0 923.5 -1.4 24
2018-05-16 16:00:00 24.6 13 Este 62 Sudeste 0 924 -1.3 25
2018-05-16 15:00:00 24.1 15 Este 36 Sudeste 0 924.4 -1 28
2018-05-16 14:00:00 23.3 14 Sudeste 35 Este 0 924.9 -0.6 33
2018-05-16 13:00:00 21.7 18 Sudeste 32 Sudeste 0 925.3 -0.3 35
2018-05-16 12:00:00 20.6 15 Sudeste 27 Sudeste 0 925.4 -0.3 37
2018-05-16 11:00:00 16.1 3 Noroeste 9 Norte 0 925.5 -0.1 56
2018-05-16 10:00:00 12.3 4 Noroeste 8 Norte 0 925.6 0.1 70
2018-05-16 09:00:00 9.1 5 Norte 9 Norte 0 925.7 0.2 83
2018-05-16 08:00:00 6 4 Este 10 Este 0 925.6 -0.1 89
2018-05-16 07:00:00 6 4 Este 9 Sudeste 0 925.5 -0.4 89
2018-05-16 06:00:00 6.5 5 Sudeste 9 Sudeste 0 925.5 -0.5 88
2018-05-16 05:00:00 7.8 6 Sudeste 10 Sur 0 925.7 -0.9 84
2018-05-16 04:00:00 8.6 6 Sudeste 10 Sur 0 925.9 -1 79
2018-05-16 03:00:00 8.9 6 Sur 10 Sudeste 0 926 -1.1 77
2018-05-16 02:00:00 9.9 6 Sudeste 10 Este 0 926.6 -0.1 73
2018-05-16 01:00:00 11.2 6 Sudeste 12 Sur 0 926.9 1.1 68
2018-05-16 00:00:00 12.4 9 Sur 21 Sudeste 0 927.1 1.8 63
2018-05-15 23:00:00 13.3 12 Sur 23 Sur 0 926.7 2.4 58
2018-05-15 22:00:00 14.8 13 Sur 25 Sudeste 0 925.8 1.9 52
2018-05-15 21:00:00 17 12 Sudeste 33 Sudeste 0 925.3 1.3 45
2018-05-15 20:00:00 19.6 20 Sudeste 33 Sudeste 0 924.3 0.1 37
2018-05-15 19:00:00 23.6 14 Sudeste 24 Sudeste 0 923.9 -1.1 29
2018-05-15 18:00:00 24.5 15 Oeste 26 Oeste 0 924 -1.6 22
2018-05-15 17:00:00 24.6 10 Oeste 23 Oeste 0 924.2 -1.9 22
2018-05-15 16:00:00 23.5 7 Norte 21 Norte 0 925 -1.7 24
2018-05-15 15:00:00 22.7 8 Noroeste 21 Norte 0 925.6 -1.6 26
2018-05-15 14:00:00 21.7 9 Norte 21 Norte 0 926.1 -1.4 31
2018-05-15 13:00:00 20.5 8 Noroeste 15 Norte 0 926.7 -1 31
2018-05-15 12:00:00 18.2 8 Noroeste 14 Noroeste 0 927.2 -0.4 39
2018-05-15 11:00:00 14.7 4 Noroeste 10 Noroeste 0 927.5 -0.1 51
2018-05-15 10:00:00 10.8 4 Oeste 9 Noroeste 0 927.7 0.6 62
2018-05-15 09:00:00 8.2 4 Norte 7 Norte 0 927.6 0.7 74
2018-05-15 08:00:00 5.2 2 Oeste 5 Sudeste 0 927.6 0.7 88
2018-05-15 07:00:00 4.9 5 Sudeste 6 Sur 0 927.1 0.1 86
2018-05-15 06:00:00 5.5 5 Sudeste 9 Sudeste 0 926.9 -0.2 84
2018-05-15 05:00:00 6 6 Sudeste 7 Sudeste 0 926.9 -0.7 79
2018-05-15 04:00:00 7.2 4 Sudeste 10 Sudeste 0 927 -0.6 69
2018-05-15 03:00:00 9.1 7 Sur 12 Sur 0 927.1 -0.6 62
2018-05-15 02:00:00 9.7 7 Sudeste 9 Sudeste 0 927.6 0.2 54
2018-05-15 01:00:00 12.6 4 Este 12 Sur 0 927.6 1 45
2018-05-15 00:00:00 14.4 8 Sur 16 Sudeste 0 927.7 1.8 36
2018-05-14 23:00:00 15.1 8 Sudeste 15 Sudeste 0 927.4 2 37
2018-05-14 22:00:00 16.5 3 Norte 21 Oeste 0 926.6 1.3 36
2018-05-14 21:00:00 19 12 Noroeste 28 Noroeste 0 925.9 0.6 34
2018-05-14 20:00:00 20.9 17 Oeste 31 Oeste 0 925.4 -0.2 30
2018-05-14 19:00:00 21.5 22 Oeste 36 Oeste 0 925.3 -0.9 27
2018-05-14 18:00:00 22 22 Oeste 35 Oeste 0 925.3 -1.2 26
2018-05-14 17:00:00 21.8 19 Oeste 33 Oeste 0 925.6 -1.4 25
2018-05-14 16:00:00 21.5 19 Oeste 35 Oeste 0 926.2 -1.4 25
2018-05-14 15:00:00 20.8 15 Oeste 30 Noroeste 0 926.5 -1.7 25
2018-05-14 14:00:00 20.1 14 Noroeste 24 Oeste 0 927 -1.8 26
2018-05-14 13:00:00 18.8 14 Noroeste 26 Noroeste 0 927.6 -1.8 27
2018-05-14 12:00:00 17 9 Norte 16 Norte 0 928.2 -1.1 31
2018-05-14 11:00:00 12.7 6 Noroeste 12 Norte 0 928.8 -0.5 48
2018-05-14 10:00:00 8.8 4 Norte 9 Norte 0 929.4 0.5 61
2018-05-14 09:00:00 5.7 2 Sur 8 Sudeste 0 929.3 0.6 70
2018-05-14 08:00:00 2.7 4 Sudeste 5 Sur 0 929.3 0.6 86
2018-05-14 07:00:00 3.2 3 Sudoeste 6 Sudeste 0 928.9 0 83
2018-05-14 06:00:00 4.5 5 Oeste 8 Oeste 0 928.7 -0.4 75
2018-05-14 05:00:00 4.5 3 Noroeste 6 Sudeste 0 928.7 -1.1 75
2018-05-14 04:00:00 4.6 3 Sudeste 10 Sudeste 0 928.9 -0.9 76
2018-05-14 03:00:00 5.4 5 Sur 9 Este 0 929.1 -0.8 65
2018-05-14 02:00:00 6.2 5 Sudeste 10 Sudeste 0 929.8 0.1 66
2018-05-14 01:00:00 7.7 8 Este 9 Sudeste 0 929.8 0.8 55
2018-05-11 20:00:00 24.5 15 Oeste 23 Oeste 0 926.1 -0.5 39
2018-05-11 19:00:00 25.6 5 Sur 13 Noroeste 0 925.8 -1.5 33
2018-05-11 18:00:00 24.4 3 Norte 12 Norte 0 926.2 -1.5 35
2018-05-11 17:00:00 25.5 6 Norte 21 Norte 0 926.6 -1.6 35
2018-05-11 16:00:00 24.6 9 Norte 15 Norte 0 927.3 -1.4 37
2018-05-11 15:00:00 23.1 4 Nordeste 16 Norte 0 927.7 -1.6 38
2018-05-11 14:00:00 21.6 4 Noroeste 11 Oeste 0 928.2 -1.3 52
2018-05-11 13:00:00 19.1 4 Norte 11 Noroeste 0 928.7 -0.6 71
2018-05-11 12:00:00 15.4 5 Norte 8 Noroeste 0 929.3 0.3 86
2018-05-11 11:00:00 12 2 Sudoeste 7 Norte 0 929.5 0.7 98
2018-05-11 10:00:00 10.5 3 Norte 8 Noroeste 0 929.3 1 98
2018-05-11 09:00:00 9.4 0 Calma 6 Sur 0 929 1.2 98
2018-05-11 08:00:00 8.6 5 Sur 6 Sur 0 928.8 1.4 98
2018-05-11 07:00:00 7.8 3 Nordeste 9 Sudeste 0 928.3 0.6 97
2018-05-11 06:00:00 8.5 6 Sudeste 9 Sudeste 0 927.8 0 96
2018-05-11 05:00:00 9.5 5 Sudeste 7 Sudeste 0 927.4 -0.7 97
2018-05-11 04:00:00 10.7 3 Nordeste 9 Sur 0 927.7 -0.2 97
2018-05-11 03:00:00 11.5 10 Sudeste 20 Sudeste 0 927.8 -0.3 97
2018-05-11 02:00:00 11.4 10 Sudeste 23 Sudeste 0 928.1 0.1 96
2018-05-11 01:00:00 10.8 9 Sudeste 12 Sudeste 0 927.9 0.6 95
2018-05-11 00:00:00 11.3 10 Sudeste 12 Sudeste 0 928.1 1 93
2018-05-10 23:00:00 13.1 4 Sudoeste 9 Sur 0.2 928 1 92
2018-05-10 22:00:00 13.6 5 Nordeste 10 Nordeste 0 927.3 1 91
2018-05-10 21:00:00 14.2 5 Sur 12 Sudeste 0 927.1 2.2 86
2018-05-10 20:00:00 14.8 7 Sur 17 Sudeste 1.4 927 2.8 86
2018-05-10 19:00:00 16.2 6 Sudeste 28 Este 1 926.3 2 84
2018-05-10 18:00:00 18.9 14 Este 34 Sudeste 1.4 924.9 0.3 74
2018-05-10 17:00:00 23.3 13 Este 26 Este 0 924.2 -0.9 47
2018-05-10 16:00:00 22.7 5 Norte 13 Oeste 0 924.3 -0.9 51
2018-05-10 15:00:00 21.8 8 Oeste 21 Noroeste 0 924.6 -0.9 54
2018-05-10 14:00:00 20.5 4 Noroeste 11 Noroeste 0 925.1 0 56
2018-05-10 13:00:00 19.4 6 Noroeste 11 Noroeste 0 925.2 0 66
2018-05-10 12:00:00 17.7 3 Nordeste 18 Oeste 0 925.5 0.8 69
2018-05-10 11:00:00 16.4 9 Noroeste 26 Oeste 0 925.1 1 77
2018-05-10 10:00:00 15.5 11 Noroeste 19 Noroeste 0 925.2 1.7 83
2018-05-10 09:00:00 14.1 13 Noroeste 19 Noroeste 0 924.7 1.4 91
2018-05-10 08:00:00 13.9 9 Noroeste 28 Oeste 0 924.1 0.5 92
2018-05-10 07:00:00 13.8 13 Oeste 24 Oeste 0 923.5 0 88
2018-05-10 06:00:00 13.7 12 Sudoeste 25 Oeste 0 923.3 -0.5 92
2018-05-10 05:00:00 14.1 13 Oeste 22 Oeste 0 923.6 -0.6 92
2018-05-10 04:00:00 14.3 9 Noroeste 19 Oeste 0 923.5 -0.4 91
2018-05-10 03:00:00 14.6 10 Oeste 21 Oeste 0 923.8 0.1 88
2018-05-10 02:00:00 14.6 19 Oeste 33 Oeste 0 924.2 0.2 88
2018-05-10 01:00:00 14.9 10 Noroeste 23 Oeste 0 923.9 0.7 87
2018-05-10 00:00:00 15.8 14 Oeste 30 Oeste 0 923.7 1 80
2018-05-09 23:00:00 16.4 17 Oeste 34 Oeste 0 924 2 76
2018-05-09 22:00:00 17.1 19 Oeste 33 Oeste 0 923.2 1.4 72
2018-05-09 21:00:00 18.2 13 Noroeste 31 Oeste 0 922.7 1.2 66
2018-05-09 20:00:00 19.1 18 Noroeste 37 Noroeste 0 922 0.8 62
2018-05-09 19:00:00 21.1 23 Oeste 40 Oeste 0 921.8 0.5 53
2018-05-09 18:00:00 22.6 22 Oeste 39 Oeste 0 921.5 -0.4 46
2018-05-09 17:00:00 23 24 Oeste 40 Noroeste 0 921.2 -1.6 47
2018-05-09 16:00:00 23.3 21 Oeste 33 Oeste 0 921.3 -1.7 47
2018-05-09 15:00:00 22.6 20 Oeste 35 Noroeste 0 921.9 -1.6 48
2018-05-09 14:00:00 21.1 22 Oeste 33 Oeste 0 922.8 -0.8 56
2018-05-09 13:00:00 20.8 14 Oeste 24 Oeste 0 923 -0.5 59
2018-05-09 12:00:00 18.5 16 Oeste 32 Oeste 0 923.5 0.3 69
2018-05-09 11:00:00 15.9 17 Oeste 30 Noroeste 0 923.6 1 86
2018-05-09 10:00:00 12.1 3 Sur 9 Sudeste 0 923.5 1.3 99
2018-05-09 09:00:00 10.3 3 Este 7 Norte 0 923.2 0.9 99
2018-05-09 08:00:00 9.4 3 Sudoeste 8 Noroeste 0.2 922.6 -0.1 98
2018-05-09 07:00:00 9.1 2 Sur 5 Este 0 922.2 -0.8 98
2018-05-09 06:00:00 10.3 4 Sudoeste 8 Sudoeste 0 922.3 -1.1 98
2018-05-09 05:00:00 10.9 3 Oeste 9 Noroeste 0 922.7 -1.3 98
2018-05-09 04:00:00 11.7 4 Sur 9 Sur 0 923 -1 97
2018-05-09 03:00:00 12.1 6 Sur 9 Sudeste 0 923.4 -0.2 97
2018-05-09 02:00:00 12.5 2 Este 5 Nordeste 0 924 0.7 97
2018-05-09 01:00:00 12.5 3 Noroeste 11 Noroeste 0 924 0.6 97
2018-05-09 00:00:00 13.1 5 Oeste 8 Oeste 0 923.6 -0.3 96
2018-05-08 23:00:00 13.4 4 Este 18 Sur 0.6 923.3 0.9 93
2018-05-08 22:00:00 13.7 10 Sudoeste 18 Sudoeste 4.2 923.4 1.8 93
2018-05-08 21:00:00 13.9 13 Norte 27 Norte 3.6 923.9 3 91
2018-05-08 20:00:00 16.3 12 Este 35 Este 0 922.4 0.9 68
2018-05-08 19:00:00 21.2 17 Noroeste 26 Oeste 0 921.6 -0.3 43
2018-05-08 18:00:00 23 10 Noroeste 23 Noroeste 0 920.9 -1.7 32
2018-05-08 17:00:00 22.7 11 Oeste 23 Oeste 0 921.5 -1 32
2018-05-08 16:00:00 21.3 6 Noroeste 32 Norte 0 921.9 -1.4 36
2018-05-08 15:00:00 20.1 26 Norte 45 Noroeste 0 922.6 -1 41
2018-05-08 14:00:00 23 15 Oeste 28 Noroeste 0 922.5 -1.4 33
2018-05-08 13:00:00 21.5 17 Oeste 27 Noroeste 0 923.3 -0.9 40
2018-05-08 12:00:00 19.5 14 Noroeste 24 Noroeste 0 923.6 -0.8 51
2018-05-08 11:00:00 16 11 Norte 19 Noroeste 0 923.9 -0.4 68
2018-05-08 10:00:00 12.3 5 Norte 9 Nordeste 0 924.2 0 85
2018-05-08 09:00:00 9.2 3 Sur 9 Este 0 924.4 0.3 96
2018-05-08 08:00:00 7.5 4 Sudoeste 6 Sudoeste 0 924.3 0.2 96
2018-05-08 07:00:00 7.1 5 Sur 9 Sudeste 0 924.2 -0.1 93
2018-05-08 06:00:00 8.5 3 Oeste 8 Oeste 0 924.1 -0.3 93
2018-05-08 05:00:00 8.8 3 Oeste 5 Sudeste 0 924.1 -0.6 91
2018-05-08 04:00:00 8.8 0 Calma 7 Sudeste 0 924.3 -0.7 88
2018-05-08 03:00:00 9.5 4 Sur 10 Sudeste 0 924.4 -0.7 84
2018-05-08 02:00:00 10.9 8 Sudeste 11 Sudeste 0 924.7 -0.1 82
2018-05-08 01:00:00 12.6 9 Sudeste 19 Sudeste 0 925 1 81
2018-05-08 00:00:00 13.7 7 Sudeste 17 Sur 0 925.1 1.3 75
2018-05-07 23:00:00 14.6 9 Sur 18 Sur 0 924.8 1.1 73
2018-05-07 22:00:00 15.8 8 Sur 15 Sudeste 0 924 0.3 67
2018-05-07 21:00:00 17.5 11 Sudeste 19 Sur 0 923.8 0.4 60
2018-05-07 20:00:00 19.7 4 Este 20 Este 0 923.7 0.8 41
2018-05-07 19:00:00 20 12 Nordeste 32 Norte 0 923.7 0.1 45
2018-05-07 18:00:00 20.7 21 Norte 42 Norte 0 923.4 -1 39
2018-05-07 17:00:00 25.2 8 Sudoeste 21 Noroeste 0 922.9 -2 26
2018-05-07 16:00:00 23.9 6 Oeste 17 Oeste 0 923.6 -2 28
2018-05-07 15:00:00 22.1 10 Norte 19 Sudeste 0 924.4 -1.7 33
2018-05-07 14:00:00 22.2 6 Este 15 Este 0 924.9 -1.4 38
2018-05-07 13:00:00 20.5 8 Nordeste 19 Este 0 925.6 -0.8 43
2018-05-07 12:00:00 18.3 6 Nordeste 16 Norte 0 926.1 -0.3 50
2018-05-07 11:00:00 14.6 6 Norte 12 Norte 0 926.3 -0.1 66
2018-05-07 10:00:00 11.4 5 Noroeste 9 Norte 0 926.4 0.5 78
2018-05-07 09:00:00 8 2 Sudeste 7 Sudeste 0 926.4 0.4 91
2018-05-07 08:00:00 5.8 3 Sudoeste 7 Norte 0 926.4 0.4 95
2018-05-07 07:00:00 5.8 0 Calma 6 Este 0 925.9 -0.4 92
2018-05-07 06:00:00 6.3 5 Este 7 Este 0 926 -0.6 92
2018-05-07 05:00:00 6.7 4 Sur 9 Este 0 926 -1.2 90
2018-05-07 04:00:00 7.1 6 Este 9 Este 0 926.3 -1 88
2018-05-07 03:00:00 7.8 5 Sudeste 8 Sudeste 0 926.6 -0.5 88
2018-05-07 02:00:00 8.7 5 Este 10 Sudeste 0 927.2 0.3 83
2018-05-07 01:00:00 9.9 7 Sudeste 11 Este 0 927.3 0.9 78
2018-05-07 00:00:00 10.7 8 Sudeste 13 Sudeste 0 927.1 1.3 73
2018-05-06 23:00:00 12.5 8 Sudeste 15 Sudeste 0 926.9 1.6 65
2018-05-06 22:00:00 14 8 Sur 17 Sudeste 0 926.4 1.1 54
2018-05-06 21:00:00 15.7 10 Sudeste 28 Sudeste 0 925.8 0.6 43
2018-05-06 20:00:00 17 16 Sudeste 36 Este 0 925.3 0.2 42
2018-05-06 19:00:00 17.8 21 Sudeste 37 Sudeste 0 925.3 -0.1 47
2018-05-06 18:00:00 18.8 20 Sudeste 37 Sudeste 0 925.2 -0.4 48
2018-05-06 17:00:00 19.7 22 Sudeste 41 Sudeste 0 925.1 -1 46
2018-05-06 16:00:00 21.4 14 Sudeste 27 Este 0 925.4 -1.3 42
2018-05-06 15:00:00 22 13 Este 32 Este 0 925.6 -1.4 41
2018-05-06 14:00:00 22.3 13 Este 28 Este 0 926.1 -1.3 42
2018-05-06 13:00:00 20 7 Este 21 Este 0 926.7 -0.6 45
2018-05-06 12:00:00 19 8 Sudeste 17 Sudeste 0 927 -0.3 50
2018-05-06 11:00:00 15.2 5 Nordeste 11 Nordeste 0 927.4 0.1 64
2018-05-06 10:00:00 12.3 4 Nordeste 8 Norte 0 927.3 0.4 82
2018-05-06 09:00:00 9 6 Sudeste 14 Sur 0 927.3 0.5 91
2018-05-06 08:00:00 6.3 5 Sudoeste 10 Sudeste 0 927.3 0.3 95
2018-05-06 07:00:00 6.1 5 Nordeste 10 Sudeste 0 926.9 -0.1 94
2018-05-06 06:00:00 6.9 3 Sudeste 6 Sur 0 926.8 -0.4 92
2018-05-06 05:00:00 7.2 2 Sudeste 8 Sudeste 0 927 -0.5 91
2018-05-06 04:00:00 8 8 Sudeste 11 Sudeste 0 927 -0.6 87
2018-05-06 03:00:00 8.7 6 Sudeste 9 Sur 0 927.2 -0.3 84
2018-05-06 02:00:00 9.8 7 Sur 10 Sur 0 927.5 0.4 77
2018-05-06 01:00:00 10.6 10 Sur 15 Sudeste 0 927.6 1.1 73
2018-05-06 00:00:00 11.8 7 Este 22 Sudeste 0 927.5 1.5 71
2018-05-05 23:00:00 13.3 14 Sudeste 24 Sur 0 927.1 1.5 65
2018-05-05 22:00:00 14.7 10 Sudeste 15 Sur 0 926.5 1.1 63
2018-05-05 21:00:00 16.5 2 Sudoeste 9 Sudeste 0 926 0.6 67
2018-05-05 20:00:00 17.8 6 Sudeste 16 Este 0 925.6 -0.1 60
2018-05-05 19:00:00 17.3 7 Sudeste 18 Este 0 925.4 0.2 68
2018-05-05 18:00:00 15.8 9 Sur 21 Oeste 0 925.4 0.3 74
2018-05-05 17:00:00 13.7 11 Oeste 42 Norte 2.6 925.7 0.4 87
2018-05-05 16:00:00 17.5 23 Norte 43 Norte 0 925.2 -0.6 57
2018-05-05 15:00:00 20.1 5 Sudoeste 33 Sudeste 0 925.1 -1.1 39
2018-05-05 14:00:00 20.7 5 Este 26 Sur 0 925.3 -0.8 42
2018-05-05 13:00:00 20.4 6 Sur 14 Sudeste 0 925.8 -0.6 40
2018-05-05 12:00:00 18.2 6 Oeste 13 Noroeste 0 926.2 0 49
2018-05-05 11:00:00 15.2 5 Sudeste 10 Sudeste 0 926.1 0.3 63
2018-05-05 10:00:00 12.9 3 Nordeste 5 Norte 0 926.4 1.2 79
2018-05-05 09:00:00 11.2 3 Norte 10 Norte 0 926.2 0.9 90
2018-05-05 08:00:00 10.1 3 Nordeste 6 Sur 0 925.8 0.6 93
2018-05-05 07:00:00 10.2 5 Sur 7 Este 0 925.2 -0.1 92
2018-05-05 06:00:00 10 3 Nordeste 7 Nordeste 0 925.3 -0.3 92
2018-05-05 05:00:00 10.2 4 Sudeste 10 Este 0 925.2 -0.7 91
2018-05-05 04:00:00 10.3 4 Sudeste 16 Sudeste 0 925.3 -0.3 88
2018-05-05 03:00:00 10 8 Sur 15 Sur 0 925.6 0.1 91
2018-05-05 02:00:00 9.3 10 Sur 14 Sur 0 925.9 1 91
2018-05-05 01:00:00 9.9 8 Sudeste 12 Sudeste 0 925.6 1.4 85
2018-05-05 00:00:00 11.6 6 Sudeste 21 Sudeste 0 925.5 2 78
2018-05-04 23:00:00 12.6 12 Sudeste 22 Sur 0 924.9 2.4 74
2018-05-04 22:00:00 14.1 14 Sur 21 Sudeste 0 924.2 2.1 61
2018-05-04 21:00:00 16.7 12 Sudeste 23 Sudeste 0 923.5 1.5 51
2018-05-04 20:00:00 18.5 10 Oeste 19 Oeste 0 922.5 0.4 39
2018-05-04 19:00:00 20 8 Norte 15 Nordeste 0 922.1 -0.2 31
2018-05-04 18:00:00 20.6 6 Este 14 Este 0 922 -0.7 31
2018-05-04 17:00:00 20.2 9 Sudeste 23 Sur 0 922.1 -0.3 31
2018-05-04 16:00:00 18.1 16 Sudeste 33 Este 0 922.3 0.4 39
2018-05-04 15:00:00 13.6 10 Nordeste 33 Este 0.2 922.7 0.7 63
2018-05-04 14:00:00 14.3 14 Sudeste 28 Este 0 922.4 0.4 57
2018-05-04 13:00:00 16.9 13 Norte 26 Sudeste 0 921.9 -0.1 47
2018-05-04 12:00:00 16.7 4 Nordeste 10 Noroeste 0 922 0.2 43
2018-05-04 11:00:00 13.9 4 Norte 11 Nordeste 0 922 0.4 66
2018-05-04 10:00:00 11.5 3 Nordeste 10 Norte 0 922 0.5 79
2018-05-04 09:00:00 9.8 5 Norte 8 Norte 0 921.8 0.4 87
2018-05-04 08:00:00 8.3 0 Calma 6 Sudeste 0 921.6 0.2 91
2018-05-04 07:00:00 8.7 3 Sur 8 Oeste 0 921.5 -0.1 86
2018-05-04 06:00:00 7.9 3 Sudeste 6 Sur 0 921.4 -0.5 84
2018-05-04 05:00:00 9.9 3 Sudoeste 10 Oeste 0 921.4 -1.2 75
2018-05-04 04:00:00 10.5 4 Norte 9 Oeste 0 921.6 -1.4 76
2018-05-04 03:00:00 11.8 2 Oeste 8 Sur 0 921.9 -1.1 67
2018-05-04 02:00:00 13.1 5 Sur 17 Oeste 0.2 922.6 -0.3 61
2018-05-04 01:00:00 13.3 13 Oeste 23 Oeste 0 923 0.5 66
2018-05-04 00:00:00 13.7 10 Oeste 22 Oeste 0 923 1.1 56
2018-05-03 23:00:00 14.3 13 Oeste 26 Oeste 0 922.9 1.6 55
2018-05-03 22:00:00 14.9 17 Oeste 30 Oeste 0 922.5 1.6 50
2018-05-03 21:00:00 15.7 15 Oeste 32 Oeste 0 921.9 1.1 45
2018-05-03 20:00:00 16.9 9 Noroeste 39 Norte 0 921.3 0.2 39
2018-05-03 19:00:00 18.6 29 Noroeste 41 Noroeste 0 920.9 -0.9 33
2018-05-03 18:00:00 19.2 18 Oeste 36 Oeste 0 920.8 -1.7 34
2018-05-03 17:00:00 19.7 18 Noroeste 33 Noroeste 0 921.1 -2.2 33
2018-05-03 16:00:00 20.5 12 Oeste 28 Oeste 0 921.8 -2.1 30
2018-05-03 15:00:00 19.9 13 Noroeste 23 Oeste 0 922.5 -1.7 34
2018-05-03 14:00:00 18.9 10 Noroeste 19 Noroeste 0 923.3 -1.3 33
2018-05-03 13:00:00 17.7 8 Noroeste 21 Oeste 0 923.9 -0.9 35
2018-05-03 12:00:00 15.5 13 Noroeste 19 Noroeste 0 924.2 -0.4 39
2018-05-03 11:00:00 13 10 Noroeste 17 Norte 0 924.6 0 50
2018-05-03 10:00:00 10.9 10 Norte 21 Oeste 0 924.8 0.3 61
2018-05-03 09:00:00 9.8 10 Noroeste 17 Noroeste 0 924.6 0 59
2018-05-03 08:00:00 7.8 2 Noroeste 20 Oeste 0 924.6 -0.3 66
2018-05-03 07:00:00 8.7 9 Oeste 19 Oeste 0 924.5 -0.7 61
2018-05-03 06:00:00 9.5 10 Oeste 21 Oeste 0 924.6 -1 59
2018-05-03 05:00:00 9.8 9 Oeste 21 Oeste 0 924.9 -1.1 60
2018-05-03 04:00:00 10.1 11 Oeste 22 Oeste 0 925.2 -0.9 58
2018-05-03 03:00:00 10.8 12 Oeste 23 Oeste 0 925.6 -0.4 55
2018-05-03 02:00:00 10.8 9 Oeste 18 Oeste 0 926 0.2 55
2018-05-03 01:00:00 11 9 Noroeste 15 Oeste 0 926.1 1 54
2018-05-03 00:00:00 11.3 8 Oeste 17 Oeste 0 926 1.3 52
2018-05-02 23:00:00 12.1 11 Oeste 22 Oeste 0 925.8 1.4 50
2018-05-02 22:00:00 13.3 17 Oeste 25 Oeste 0 925.1 0.8 42
2018-05-02 21:00:00 14.3 15 Noroeste 30 Noroeste 0 924.7 0.3 34
2018-05-02 20:00:00 16.4 18 Noroeste 36 Oeste 0 924.4 0.1 27
2018-05-02 19:00:00 17 19 Oeste 35 Noroeste 0 924.3 -0.4 29
2018-05-02 18:00:00 17.6 15 Noroeste 37 Oeste 0 924.4 -0.5 29
2018-05-02 17:00:00 17.8 17 Oeste 35 Noroeste 0 924.3 -1.1 27
2018-05-02 16:00:00 17.3 18 Noroeste 35 Noroeste 0 924.7 -1.3 29
2018-05-02 15:00:00 16.3 19 Oeste 34 Oeste 0 924.9 -1.5 34
2018-05-02 14:00:00 15.6 14 Noroeste 30 Norte 0 925.4 -1 35
2018-05-02 13:00:00 14.2 16 Oeste 28 Noroeste 0 926 -0.5 35
2018-05-02 12:00:00 12.6 17 Oeste 28 Noroeste 0 926.4 -0.1 47
2018-05-02 11:00:00 10.3 14 Oeste 27 Noroeste 0 926.4 0.1 57
2018-05-02 10:00:00 6.4 5 Noroeste 10 Noroeste 0 926.5 0.8 80
2018-05-02 09:00:00 3.2 2 Nordeste 6 Sudeste 0 926.5 0.9 95
2018-05-02 08:00:00 0.4 5 Sudeste 9 Sudeste 0 926.3 0.7 94
2018-05-02 07:00:00 0.5 4 Sur 10 Sur 0 925.7 0.3 91
2018-05-02 06:00:00 0.8 8 Sur 10 Sudeste 0 925.6 0 90
2018-05-02 05:00:00 1.3 6 Sudeste 11 Sudeste 0 925.6 -0.2 87
2018-05-02 04:00:00 2.6 5 Sur 12 Sudeste 0 925.4 -0.2 82
2018-05-02 03:00:00 4.7 5 Sudoeste 15 Oeste 0 925.6 0.1 76
2018-05-02 02:00:00 5.7 8 Oeste 17 Oeste 0 925.8 0.6 71
2018-05-02 01:00:00 6.6 8 Sudoeste 24 Oeste 0 925.6 0.9 67
2018-05-02 00:00:00 6.9 10 Oeste 29 Oeste 0 925.5 1.5 69
2018-05-01 23:00:00 7.2 7 Oeste 28 Oeste 0 925.2 1.6 68
2018-05-01 22:00:00 7.8 16 Oeste 29 Oeste 0 924.7 1.6 63
2018-05-01 21:00:00 9.2 16 Oeste 29 Oeste 0 924 0.4 60
2018-05-01 20:00:00 11.1 18 Oeste 30 Oeste 0 923.6 -0.2 51
2018-05-01 19:00:00 11.9 16 Oeste 28 Oeste 0 923.1 -0.4 48
2018-05-01 18:00:00 12.1 13 Oeste 34 Oeste 0 923.6 1.2 49
2018-05-01 17:00:00 10.6 21 Noroeste 51 Oeste 0 923.8 1.1 57
2018-05-01 16:00:00 9.6 33 Oeste 60 Oeste 0 923.5 0 58
2018-05-01 15:00:00 14.9 24 Noroeste 43 Noroeste 0 922.4 -1.7 32
2018-05-01 14:00:00 14.5 11 Noroeste 23 Oeste 0 922.7 -1.6 33
2018-05-01 13:00:00 13.2 17 Noroeste 25 Noroeste 0 923.5 -0.6 33
2018-05-01 12:00:00 11.9 10 Noroeste 23 Oeste 0 924.1 0 45
2018-05-01 11:00:00 10.6 13 Oeste 21 Oeste 0 924.3 0.2 49
2018-05-01 10:00:00 8.2 5 Noroeste 12 Noroeste 0 924.1 0.4 68
2018-05-01 09:00:00 4.9 -- -- -- -- -- 924.1 0.5 84
2018-05-01 08:00:00 3 6 Sudeste 13 Oeste 0 924.1 0.2 83
2018-05-01 07:00:00 5 9 Oeste 15 Oeste 0 923.7 -0.3 76
2018-05-01 06:00:00 5 10 Oeste 13 Oeste 0 923.6 -0.9 75
2018-05-01 05:00:00 5.6 11 Oeste 18 Oeste 0 923.9 -1 71
2018-05-01 04:00:00 5.6 9 Oeste 14 Oeste 0 924 -1.1 71
2018-05-01 03:00:00 5.3 4 Sudoeste 8 Sudoeste 0 924.5 -0.3 71
2018-05-01 02:00:00 6 4 Sudeste 12 Oeste 0 924.9 0.4 68
2018-05-01 01:00:00 7.6 4 Oeste 15 Oeste 0 925.1 1.2 61
2018-05-01 00:00:00 8.7 11 Oeste 25 Oeste 0 924.8 1.4 55
2018-04-30 23:00:00 9.5 10 Oeste 22 Oeste 0 924.5 1.5 50
2018-04-30 22:00:00 10.6 14 Oeste 23 Oeste 0 923.9 1.1 43
2018-04-30 21:00:00 11.2 14 Oeste 32 Noroeste 0 923.4 0.8 40
2018-04-30 20:00:00 12.1 19 Oeste 40 Oeste 0 923 0.1 41
2018-04-30 19:00:00 13.2 21 Oeste 38 Oeste 0 922.8 -0.3 40
2018-04-30 18:00:00 14.8 15 Noroeste 34 Noroeste 0 922.6 -0.9 34
2018-04-30 17:00:00 13.3 19 Noroeste 37 Noroeste 0 922.9 -0.7 38
2018-04-30 16:00:00 14 14 Noroeste 31 Oeste 0 923.1 -1.1 41
2018-04-30 15:00:00 14.2 19 Noroeste 37 Oeste 0 923.5 -0.9 39
2018-04-30 14:00:00 13.7 14 Noroeste 31 Noroeste 0 923.6 -1 41
2018-04-30 13:00:00 13 14 Noroeste 27 Oeste 0 924.2 -0.6 42
2018-04-30 12:00:00 11.9 14 Noroeste 24 Noroeste 0 924.4 -0.5 48
2018-04-30 11:00:00 10.2 13 Noroeste 23 Noroeste 0 924.6 -0.2 53
2018-04-30 10:00:00 8.1 7 Noroeste 17 Oeste 0 924.8 0.1 72
2018-04-30 09:00:00 4.7 4 Este 15 Sudeste 0 924.9 0.3 89
2018-04-30 08:00:00 2.7 5 Sudeste 9 Sudeste 0 924.8 -0.1 92
2018-04-30 07:00:00 2.9 8 Sur 13 Sur 0 924.7 -0.3 90
2018-04-30 06:00:00 4.2 3 Sur 9 Este 0 924.6 -1.1 87
2018-04-30 05:00:00 5.4 4 Este 20 Oeste 0 924.9 -1.4 79
2018-04-30 04:00:00 6.7 11 Oeste 23 Oeste 0 925 -1.3 74
2018-04-30 03:00:00 8 14 Oeste 24 Oeste 0 925.7 -0.7 66
2018-04-30 02:00:00 8.6 12 Oeste 21 Oeste 0 926.3 0.4 66
2018-04-30 01:00:00 8.8 13 Oeste 24 Sudoeste 0 926.3 1 65
2018-04-30 00:00:00 9.5 14 Sudoeste 22 Oeste 0 926.4 1.9 57
2018-04-29 23:00:00 9.8 11 Oeste 18 Oeste 0 925.9 1.8 52
2018-04-29 22:00:00 10.7 9 Oeste 33 Oeste 0 925.3 1.4 47
2018-04-29 21:00:00 11.7 14 Oeste 43 Oeste 0 924.5 0.8 39
2018-04-29 20:00:00 13.4 27 Oeste 47 Oeste 0 924.1 0.4 34
2018-04-29 19:00:00 14.3 27 Oeste 50 Oeste 0 923.9 0 31
2018-04-29 18:00:00 14.2 30 Oeste 53 Oeste 0 923.7 -0.6 34
2018-04-29 17:00:00 14.4 32 Oeste 52 Oeste 0 923.7 -0.4 30
2018-04-29 16:00:00 14.4 30 Oeste 57 Oeste 0 923.9 -0.1 32
2018-04-29 15:00:00 13.4 31 Oeste 54 Oeste 0 924.3 0.3 37
2018-04-29 14:00:00 12.8 32 Oeste 64 Oeste 0 924.1 0.4 40
2018-04-29 13:00:00 11.8 37 Oeste 62 Oeste 0 924 1.2 43
2018-04-29 12:00:00 10.4 42 Oeste 61 Oeste 0 924 1.7 44
2018-04-29 11:00:00 9.4 30 Oeste 48 Oeste 0 923.7 2.2 50
2018-04-29 10:00:00 8.4 28 Oeste 49 Oeste 0 922.8 2.2 58
2018-04-29 09:00:00 7 23 Oeste 41 Oeste 0 922.3 2 68
2018-04-29 08:00:00 6.4 19 Oeste 48 Oeste 0 921.5 1.6 72
2018-04-29 07:00:00 6.6 26 Oeste 49 Oeste 0 920.6 0.6 73
2018-04-29 06:00:00 7.1 21 Oeste 35 Oeste 0 920.3 0 76
2018-04-29 05:00:00 7.3 9 Oeste 14 Noroeste 0 919.9 -0.4 70
2018-04-29 04:00:00 7.3 9 Norte 19 Oeste 0 920 -0.5 68
2018-04-29 03:00:00 8.9 17 Oeste 28 Oeste 0 920.3 0.2 58
2018-04-29 02:00:00 9.8 8 Oeste 17 Oeste 0 920.3 0.8 58
2018-04-29 01:00:00 10.2 6 Norte 16 Norte 0 920.5 1.3 61
2018-04-29 00:00:00 12 8 Noroeste 21 Oeste 0 920.1 1.7 54
2018-04-28 23:00:00 12.3 5 Sudoeste 17 Oeste 0 919.5 1.5 53
2018-04-28 22:00:00 13.5 6 Oeste 17 Oeste 0 919.2 0.9 51
2018-04-28 21:00:00 15.5 12 Oeste 35 Oeste 0 918.4 -0.1 50
2018-04-28 20:00:00 18.4 24 Oeste 37 Oeste 0 918 -0.9 45
2018-04-28 19:00:00 20.2 21 Noroeste 36 Noroeste 0 918.3 -1.2 43
2018-04-28 18:00:00 21.9 17 Norte 30 Noroeste 0 918.5 -1.9 42
2018-04-28 17:00:00 22.7 15 Noroeste 31 Oeste 0 918.9 -2.2 32
2018-04-28 16:00:00 23 12 Noroeste 27 Noroeste 0 919.5 -2.5 28
2018-04-28 15:00:00 22.2 11 Noroeste 27 Noroeste 0 920.4 -2.2 28
2018-04-28 14:00:00 21.4 10 Norte 18 Norte 0 921.1 -1.6 44
2018-04-28 13:00:00 19.6 5 Norte 14 Noroeste 0 922 -0.8 50
2018-04-28 12:00:00 17.3 3 Norte 18 Oeste 0 922.6 -0.3 57
2018-04-28 11:00:00 13.9 3 Norte 8 Norte 0 922.7 -0.1 79
2018-04-28 10:00:00 11.5 3 Norte 6 Norte 0 922.8 0.2 89
2018-04-28 09:00:00 8.8 3 Noroeste 9 Sur 0 922.9 0.4 97
2018-04-28 08:00:00 7.5 7 Sur 9 Sur 0 922.8 0 96
2018-04-28 07:00:00 7.7 6 Sur 9 Sur 0 922.6 -0.3 96
2018-04-28 06:00:00 8.4 3 Sur 7 Sudeste 0 922.5 -0.9 96
2018-04-28 05:00:00 9.1 5 Sudeste 8 Sudeste 0 922.8 -1 95
2018-04-28 04:00:00 10 6 Sur 10 Sur 0 922.9 -1.4 95
2018-04-28 03:00:00 10.5 5 Sur 13 Sudeste 0 923.4 -1.1 93
2018-04-28 02:00:00 11 9 Sur 12 Sudeste 0 923.8 -0.9 92
2018-04-28 01:00:00 11.2 9 Sudeste 13 Sudeste 0 924.3 -0.1 92
2018-04-28 00:00:00 12 9 Sur 14 Sudeste 0 924.5 0.8 90
2018-04-27 23:00:00 13.8 5 Oeste 10 Noroeste 0 924.7 0.8 84
2018-04-27 22:00:00 13.9 8 Este 12 Sudoeste 0 924.4 0.6 84
2018-04-27 21:00:00 16.7 5 Sur 14 Sur 0 923.7 -0.2 82
2018-04-27 20:00:00 17.9 12 Sur 18 Sur 0 923.9 0.5 80
2018-04-27 19:00:00 13.8 10 Sur 55 Oeste 5.4 923.8 -0.1 89
2018-04-27 18:00:00 17.2 18 Sur 34 Sudeste 0.2 923.9 -0.1 59
2018-04-27 17:00:00 20.3 15 Sur 27 Sur 0 923.4 -1.3 55
2018-04-27 16:00:00 24.5 13 Oeste 28 Oeste 0 923.9 -1.5 33
2018-04-27 15:00:00 23.6 17 Oeste 32 Noroeste 0 924 -1.9 41
2018-04-27 14:00:00 22.1 18 Oeste 30 Noroeste 0 924.7 -1.3 49
2018-04-27 13:00:00 20.5 19 Noroeste 29 Noroeste 0 925.4 -0.8 56
2018-04-27 12:00:00 19 18 Noroeste 31 Noroeste 0 925.9 -0.4 66
2018-04-27 11:00:00 17.3 13 Noroeste 26 Oeste 0 926 -0.1 75
2018-04-27 10:00:00 15.3 15 Noroeste 27 Oeste 0 926.2 0.4 84
2018-04-27 09:00:00 14.4 12 Oeste 25 Oeste 0 926.3 0.4 89
2018-04-27 08:00:00 14 15 Noroeste 30 Oeste 0 926.1 0 85
2018-04-27 07:00:00 13.8 15 Oeste 22 Oeste 0 925.8 -0.7 84
2018-04-27 06:00:00 13.9 13 Noroeste 24 Oeste 0 925.9 -1 86
2018-04-27 05:00:00 9.1 5 Sudeste 11 Sur 0 926.1 -1.7 94
2018-04-27 04:00:00 8.9 6 Sur 10 Sudeste 0 926.5 -1.7 93
2018-04-27 03:00:00 9.2 6 Sudeste 12 Sur 0 926.9 -0.8 93
2018-04-27 02:00:00 9.8 5 Sudeste 8 Sur 0 927.8 -0.1 93
2018-04-27 01:00:00 10.9 6 Noroeste 9 Noroeste 0 928.2 0.6 90
2018-04-27 00:00:00 12 6 Sur 12 Sudeste 0 927.7 0.5 89
2018-04-26 23:00:00 13.4 10 Sudeste 21 Sudeste 0 927.9 1 88
2018-04-26 22:00:00 14 9 Sur 19 Sudeste 0 927.6 1 82
2018-04-26 21:00:00 16 13 Sudeste 23 Sudeste 0 927.2 0.7 63
2018-04-26 20:00:00 18.7 14 Sudeste 23 Sudeste 0 926.9 0.5 50
2018-04-26 19:00:00 19.7 15 Sudeste 28 Sudeste 0 926.6 -0.4 46
2018-04-26 18:00:00 18.8 14 Sudeste 31 Sudeste 0 926.5 -0.9 49
2018-04-26 17:00:00 20.8 18 Sudeste 32 Sudeste 0 926.4 -1.4 44
2018-04-26 16:00:00 21.2 13 Sudeste 26 Sudeste 0 927 -1 48
2018-04-26 15:00:00 19.1 11 Sur 19 Sur 0 927.4 -0.8 54
2018-04-26 14:00:00 17.3 3 Sur 10 Este 0 927.8 0 60
2018-04-26 13:00:00 14.9 2 Sudeste 10 Sur 0 928 0.6 71
2018-04-26 12:00:00 14.1 6 Sur 10 Sur 0 928.2 1.3 88
2018-04-26 11:00:00 13 2 Este 9 Sudeste 0 927.8 1.5 96
2018-04-26 10:00:00 12.6 4 Sudeste 6 Este 0 927.4 1.3 97
2018-04-26 09:00:00 11.9 2 Sur 5 Este 0 926.9 1.1 97
2018-04-26 08:00:00 11.4 4 Sudeste 6 Sur 0.4 926.3 0.5 97
2018-04-26 07:00:00 11.3 3 Sur 6 Norte 1 926.1 -0.2 97
2018-04-26 06:00:00 11.3 3 Norte 6 Noroeste 0 925.8 -0.9 96
2018-04-26 05:00:00 11 3 Sur 9 Sur 0 925.8 -1.3 96
2018-04-26 04:00:00 10.9 5 Sudeste 7 Sudeste 0 926.3 -0.9 96
2018-04-26 03:00:00 11 5 Sudeste 9 Este 0 926.7 -0.9 95
2018-04-26 02:00:00 11.4 2 Sur 11 Noroeste 0 927.1 -0.4 94
2018-04-26 01:00:00 12 5 Sudeste 10 Sudeste 0 927.2 0.4 92
2018-04-26 00:00:00 12.9 8 Sudeste 14 Sudeste 0 927.6 1.6 91
2018-04-25 23:00:00 13.1 10 Sudeste 13 Sudeste 0.2 927.5 1.6 90
2018-04-25 22:00:00 14.3 5 Este 8 Este 0 926.8 1.1 75
2018-04-25 21:00:00 15 4 Sudoeste 17 Sur 0 926 0.2 66
2018-04-25 20:00:00 15.6 9 Sudeste 22 Sudeste 0 925.9 0.2 65
2018-04-25 19:00:00 16 10 Sudeste 21 Sudeste 0 925.7 0 68
2018-04-25 18:00:00 16.6 10 Este 35 Nordeste 0 925.8 -0.4 62
2018-04-25 17:00:00 17.2 14 Nordeste 34 Nordeste 0 925.7 -0.7 53
2018-04-25 16:00:00 17 7 Sudeste 17 Sudeste 0 925.7 -1.3 63
2018-04-25 15:00:00 16.8 9 Sur 23 Sudeste 0 926.2 -0.6 59
2018-04-25 14:00:00 15.9 9 Sur 30 Sudeste 0 926.4 -0.4 65
2018-04-25 13:00:00 15.2 16 Sudeste 28 Sudeste 0 927 0.3 69
2018-04-25 12:00:00 14.3 8 Sur 20 Sudeste 0.2 926.8 0.3 79
2018-04-25 11:00:00 13.9 10 Sudeste 18 Sudeste 0 926.8 0.4 79
2018-04-25 10:00:00 12.3 8 Sudeste 15 Sudeste 0 926.7 0.8 91
2018-04-25 09:00:00 11.5 7 Sur 10 Sur 0.2 926.5 0.9 91
2018-04-25 08:00:00 11.8 7 Sur 16 Sur 0 926.4 0.8 81
2018-04-25 07:00:00 11 8 Sudeste 9 Sudeste 0 925.9 0.5 77
2018-04-25 06:00:00 11.8 7 Sur 8 Sur 0 925.6 -0.8 72
2018-04-25 05:00:00 13.2 5 Sudoeste 8 Sudoeste 0 925.6 -1 62
2018-04-25 04:00:00 13.2 2 Nordeste 13 Norte 0 925.4 -1.7 61
2018-04-25 03:00:00 14.1 9 Sudeste 17 Sudeste 0 926.4 -0.5 57
2018-04-25 02:00:00 14.6 10 Sudeste 30 Este 0 926.6 0.2 53
2018-04-25 01:00:00 13.2 9 Sudeste 13 Sudeste 0 927.1 1.1 66
2018-04-25 00:00:00 14.1 5 Este 7 Sudeste 0 926.9 1.9 61
2018-04-24 23:00:00 15.2 6 Sur 11 Este 0 926.4 2 57
2018-04-24 22:00:00 17.4 6 Sudeste 23 Este 0 926 1.8 48
2018-04-24 21:00:00 19.7 5 Este 19 Sudeste 0 925 1.4 41
2018-04-24 20:00:00 22.5 14 Sudeste 34 Este 0 924.4 0.8 34
2018-04-24 19:00:00 23.7 21 Este 44 Este 0 924.2 -0.1 28
2018-04-24 18:00:00 26.3 24 Este 40 Este 0 923.6 -1.4 25
2018-04-24 17:00:00 26.5 26 Sudeste 46 Este 0 923.6 -2.1 24
2018-04-24 16:00:00 26.7 24 Sudeste 45 Sudeste 0 924.3 -2 24
2018-04-24 15:00:00 25.6 22 Este 41 Este 0 925 -1.6 25
2018-04-24 14:00:00 24.3 19 Este 38 Este 0 925.7 -0.8 27
2018-04-24 13:00:00 23.1 15 Sudeste 35 Este 0 926.3 -0.1 28
2018-04-24 12:00:00 21 19 Sudeste 33 Sudeste 0 926.6 0.5 29
2018-04-24 11:00:00 18.7 18 Sudeste 31 Sudeste 0 926.5 0.8 32
2018-04-24 10:00:00 15.5 17 Sudeste 26 Sudeste 0 926.4 1.2 43
2018-04-24 09:00:00 9.3 5 Sudeste 12 Sudeste 0 926.1 1 81
2018-04-24 08:00:00 7.6 6 Sudeste 13 Sudeste 0 925.7 0.5 88
2018-04-24 07:00:00 8.9 9 Sur 10 Sur 0 925.2 -0.1 88
2018-04-24 06:00:00 10 6 Este 12 Nordeste 0 925.1 -0.4 87
2018-04-24 05:00:00 10.7 5 Sudeste 10 Sudeste 0 925.2 -1.2 89
2018-04-24 04:00:00 11.7 8 Sudeste 10 Sudeste 0 925.3 -2 86
2018-04-24 03:00:00 12.9 9 Sur 15 Sudoeste 0 925.5 -2.3 80
2018-04-24 02:00:00 13.9 7 Sudoeste 16 Norte 0.2 926.4 1 77
2018-04-24 01:00:00 15.3 9 Este 43 Sur 0 927.3 2.1 64
2018-04-24 00:00:00 17.8 6 Este 24 Sur 0 927.8 2.7 42